Time;durP1;ratioP1;P1;durP2;ratioP2;P2;SDS_P1;SDS_P2;PMS_P1;PMS_P2;Temp;Humidity;BMP_temperature;BMP_pressure;BME280_temperature;BME280_humidity;BME280_pressure;Samples;Min_cycle;Max_cycle;Signal;HPM_P1;HPM_P2
2020/12/20 00:02:05;;;;;;;9.43;2.33;;;;;;;10.06;64.55;98453.13;4956009;28;20046;-83
2020/12/20 00:04:31;;;;;;;7.55;1.60;;;;;;;9.47;65.46;98459.78;4970249;28;20047;-83
2020/12/20 00:07:19;;;;;;;13.05;1.77;;;;;;;9.34;66.69;98465.28;4972351;28;20858;-83
2020/12/20 00:09:51;;;;;;;6.78;2.08;;;;;;;9.73;64.87;98472.22;4971691;28;20407;-83
2020/12/20 00:12:18;;;;;;;9.32;2.00;;;;;;;9.80;64.76;98458.13;4973409;28;20085;-83
2020/12/20 00:14:45;;;;;;;10.35;1.98;;;;;;;9.58;65.28;98459.53;4968163;28;20043;-83
2020/12/20 00:17:13;;;;;;;9.55;1.60;;;;;;;9.50;65.16;98466.66;4970114;28;20050;-83
2020/12/20 00:19:42;;;;;;;9.55;2.05;;;;;;;9.30;65.82;98458.44;4974080;28;20066;-84
2020/12/20 00:22:11;;;;;;;6.35;1.33;;;;;;;9.34;65.54;98467.91;4951814;28;20078;-84
2020/12/20 00:24:38;;;;;;;7.30;1.63;;;;;;;9.65;65.23;98479.34;4986442;28;20089;-83
2020/12/20 00:27:06;;;;;;;7.68;2.30;;;;;;;9.42;65.65;98486.81;4969541;28;20039;-83
2020/12/20 00:29:34;;;;;;;10.00;1.67;;;;;;;9.69;64.57;98487.97;4984420;28;20446;-83
2020/12/20 00:32:02;;;;;;;7.72;1.60;;;;;;;9.64;64.68;98481.09;4967473;28;20039;-85
2020/12/20 00:34:30;;;;;;;8.50;1.95;;;;;;;9.67;65.14;98495.81;4972232;28;20121;-84
2020/12/20 00:37:07;;;;;;;17.25;1.90;;;;;;;9.38;65.15;98479.97;4969926;28;20040;-84
2020/12/20 00:39:35;;;;;;;17.10;2.75;;;;;;;9.55;64.96;98473.47;4952181;28;20050;-83
2020/12/20 00:42:06;;;;;;;14.20;1.60;;;;;;;9.31;65.11;98468.81;4974182;28;20050;-83
2020/12/20 00:44:34;;;;;;;7.47;1.63;;;;;;;9.65;65.00;98476.72;4976142;28;20097;-83
2020/12/20 00:47:03;;;;;;;6.70;1.13;;;;;;;9.45;64.69;98465.88;4955927;28;20485;-82
2020/12/20 00:49:32;;;;;;;12.00;1.90;;;;;;;9.53;64.81;98480.50;4966645;28;20062;-83
2020/12/20 00:52:01;;;;;;;12.60;2.50;;;;;;;9.26;65.68;98477.63;4967642;28;20082;-83
2020/12/20 00:54:29;;;;;;;14.20;1.75;;;;;;;9.55;65.10;98477.81;4971201;28;20661;-84
2020/12/20 00:56:56;;;;;;;8.23;1.33;;;;;;;9.76;64.21;98490.38;4981390;28;20061;-84
2020/12/20 00:59:23;;;;;;;8.52;1.58;;;;;;;9.28;64.84;98494.09;4974346;28;20054;-83
2020/12/20 01:01:49;;;;;;;9.30;1.30;;;;;;;9.59;64.38;98485.53;4987103;28;20046;-83
2020/12/20 01:04:19;;;;;;;9.18;1.27;;;;;;;9.73;63.12;98481.78;4989804;28;20054;-83
2020/12/20 01:06:47;;;;;;;7.50;1.30;;;;;;;9.34;64.72;98483.53;4955253;28;20118;-83
2020/12/20 01:09:17;;;;;;;6.75;1.40;;;;;;;9.61;63.79;98478.56;4972119;28;20510;-83
2020/12/20 01:11:44;;;;;;;5.65;1.55;;;;;;;9.66;64.24;98488.03;4955883;28;20043;-82
2020/12/20 01:14:11;;;;;;;10.68;1.42;;;;;;;9.57;64.03;98487.34;4949868;28;20606;-83
2020/12/20 01:16:38;;;;;;;8.98;1.92;;;;;;;9.71;63.55;98500.06;4954090;28;20049;-83
2020/12/20 01:19:06;;;;;;;5.78;1.40;;;;;;;9.34;64.72;98494.81;4955444;28;20043;-84
2020/12/20 01:21:34;;;;;;;8.93;2.35;;;;;;;9.47;63.58;98509.31;4970829;28;20105;-83
2020/12/20 01:24:01;;;;;;;7.60;1.58;;;;;;;9.54;63.73;98500.44;4968909;28;20501;-83
2020/12/20 01:26:29;;;;;;;20.70;1.83;;;;;;;9.34;64.23;98497.44;4946886;28;20039;-82
2020/12/20 01:28:56;;;;;;;9.40;1.63;;;;;;;9.51;64.17;98495.31;4938115;28;20153;-83
2020/12/20 01:31:24;;;;;;;12.73;2.15;;;;;;;9.51;64.03;98491.84;4968871;28;20052;-84
2020/12/20 01:33:51;;;;;;;11.05;1.77;;;;;;;9.63;63.59;98505.47;4968646;28;20038;-84
2020/12/20 01:36:17;;;;;;;8.20;1.42;;;;;;;9.25;64.68;98502.84;4973062;28;20077;-84
2020/12/20 01:38:45;;;;;;;16.40;2.17;;;;;;;9.72;63.18;98503.53;4951498;28;20039;-83
2020/12/20 01:41:12;;;;;;;6.95;1.27;;;;;;;9.33;63.87;98498.31;4973038;28;20461;-83
2020/12/20 01:43:51;;;;;;;10.18;1.92;;;;;;;9.90;62.85;98505.72;4977460;28;20062;-83
2020/12/20 01:46:20;;;;;;;11.23;1.80;;;;;;;9.68;63.48;98509.72;4976453;28;20078;-84
2020/12/20 01:48:50;;;;;;;22.30;2.75;;;;;;;9.30;64.45;98516.63;4973797;28;20490;-83
2020/12/20 01:51:17;;;;;;;12.32;1.98;;;;;;;9.50;64.25;98497.94;4973139;28;20046;-83
2020/12/20 01:53:46;;;;;;;11.00;2.03;;;;;;;9.64;63.52;98509.75;4969692;28;20062;-81
2020/12/20 01:56:13;;;;;;;10.05;1.83;;;;;;;9.30;65.57;98521.84;4983525;28;20518;-82
2020/12/20 01:58:40;;;;;;;14.18;2.15;;;;;;;9.25;65.14;98512.41;4991815;28;20488;-82
2020/12/20 02:01:10;;;;;;;14.48;2.92;;;;;;;9.98;63.02;98520.28;4968969;28;20043;-84
2020/12/20 02:03:38;;;;;;;12.30;1.85;;;;;;;9.49;64.67;98527.53;4972528;28;20058;-81
2020/12/20 02:06:05;;;;;;;24.08;2.30;;;;;;;9.77;63.76;98528.63;4963994;28;20066;-83
2020/12/20 02:08:35;;;;;;;14.77;1.92;;;;;;;9.57;64.78;98533.41;4969726;28;20055;-83
2020/12/20 02:11:17;;;;;;;21.25;2.70;;;;;;;9.91;63.02;98533.53;4971500;28;20102;-84
2020/12/20 02:13:48;;;;;;;16.88;2.28;;;;;;;9.99;63.30;98540.25;4969769;28;20359;-83
2020/12/20 02:16:17;;;;;;;21.52;3.25;;;;;;;9.51;65.56;98551.78;4951866;28;20401;-82
2020/12/20 02:18:44;;;;;;;11.95;2.15;;;;;;;9.60;64.57;98547.25;4974461;28;20039;-84
2020/12/20 02:21:17;;;;;;;15.27;2.70;;;;;;;10.11;63.87;98553.94;4970358;28;20086;-84
2020/12/20 02:23:50;;;;;;;12.80;2.00;;;;;;;10.14;63.31;98559.06;4969871;28;20079;-82
2020/12/20 02:26:20;;;;;;;;;;;;;;;9.85;64.12;98558.00;4971361;28;20458;-82
2020/12/20 02:28:50;;;;;;;17.35;2.17;;;;;;;10.14;63.45;98553.84;4972351;28;19922;-83
2020/12/20 02:31:18;;;;;;;21.90;3.00;;;;;;;10.41;62.42;98553.19;4970318;28;20035;-83
2020/12/20 02:33:47;;;;;;;13.32;2.83;;;;;;;10.15;63.05;98550.34;4975080;28;20116;-83
2020/12/20 02:36:16;;;;;;;11.10;1.92;;;;;;;10.33;62.58;98542.97;4970277;28;20070;-83
2020/12/20 02:38:45;;;;;;;7.53;1.98;;;;;;;10.63;61.74;98548.31;4985112;28;20053;-83
2020/12/20 02:41:12;;;;;;;14.13;3.05;;;;;;;10.87;61.28;98560.72;4968541;28;20050;-84
2020/12/20 02:43:39;;;;;;;12.07;2.45;;;;;;;10.70;61.50;98558.53;4975913;28;20043;-84
2020/12/20 02:46:06;;;;;;;15.65;2.25;;;;;;;10.24;62.75;98548.41;4981467;28;20098;-83
2020/12/20 02:48:33;;;;;;;14.95;2.42;;;;;;;10.24;62.63;98558.84;4970869;28;20645;-83
2020/12/20 02:50:59;;;;;;;13.43;2.47;;;;;;;10.42;62.07;98571.44;4953380;28;20425;-83
2020/12/20 02:53:26;;;;;;;16.42;2.20;;;;;;;10.51;61.92;98578.19;4953552;28;20064;-83
2020/12/20 02:55:53;;;;;;;13.88;2.35;;;;;;;10.49;61.78;98593.03;4953630;28;20058;-81
2020/12/20 02:58:19;;;;;;;9.82;2.15;;;;;;;10.34;61.83;98582.97;4971394;28;20050;-82
2020/12/20 03:00:47;;;;;;;11.48;2.67;;;;;;;10.42;61.88;98586.25;4984111;28;20071;-83
2020/12/20 03:03:14;;;;;;;14.73;1.60;;;;;;;11.06;60.11;98588.06;4978714;28;20101;-82
2020/12/20 03:05:40;;;;;;;13.15;1.63;;;;;;;10.24;61.90;98571.03;4953612;28;20162;-83
2020/12/20 03:08:07;;;;;;;8.82;1.98;;;;;;;9.97;62.69;98588.19;4967459;28;20046;-83
2020/12/20 03:10:33;;;;;;;7.20;1.55;;;;;;;10.47;61.30;98576.53;4968743;28;20043;-83
2020/12/20 03:13:01;;;;;;;11.52;2.50;;;;;;;10.16;61.87;98592.09;4969676;28;20042;-82
2020/12/20 03:15:28;;;;;;;14.68;2.13;;;;;;;10.41;61.37;98580.16;4955768;28;20073;-83
2020/12/20 03:17:55;;;;;;;14.25;1.40;;;;;;;10.22;60.95;98594.56;4967984;28;20137;-83
2020/12/20 03:20:21;;;;;;;7.18;1.27;;;;;;;10.71;59.23;98588.13;4964703;28;20050;-83
2020/12/20 03:22:48;;;;;;;10.07;1.35;;;;;;;10.39;60.49;98594.16;4972065;28;20051;-82
2020/12/20 03:25:14;;;;;;;12.63;1.50;;;;;;;9.61;62.37;98597.66;4969147;28;20141;-82
2020/12/20 03:27:49;;;;;;;10.48;1.42;;;;;;;9.70;62.62;98600.06;4956723;28;20039;-83
2020/12/20 03:30:15;;;;;;;10.45;2.42;;;;;;;10.06;61.28;98598.41;4969832;28;20410;-83
2020/12/20 03:32:42;;;;;;;10.02;1.30;;;;;;;9.84;61.81;98602.34;4952702;28;20039;-83
2020/12/20 03:35:08;;;;;;;8.48;1.65;;;;;;;9.51;63.40;98610.00;4971780;28;20090;-84
2020/12/20 03:37:35;;;;;;;9.73;1.27;;;;;;;9.84;61.73;98612.78;4970286;28;20053;-84
2020/12/20 03:40:04;;;;;;;11.60;1.27;;;;;;;10.27;60.31;98618.78;4972022;28;20039;-81
2020/12/20 03:42:30;;;;;;;9.27;1.27;;;;;;;10.17;61.01;98608.63;4970456;28;20053;-82
2020/12/20 03:44:57;;;;;;;11.10;1.35;;;;;;;9.92;61.43;98622.19;4963360;28;20046;-82
2020/12/20 03:47:25;;;;;;;8.02;1.48;;;;;;;10.18;60.88;98626.84;4969170;28;20057;-82
2020/12/20 03:49:53;;;;;;;12.18;2.13;;;;;;;10.41;59.90;98628.91;4983438;28;20066;-82
2020/12/20 03:52:19;;;;;;;11.18;1.60;;;;;;;9.83;62.27;98640.63;4968343;28;20238;-83
2020/12/20 03:54:46;;;;;;;8.75;1.80;;;;;;;9.41;63.90;98637.16;4968223;28;20412;-82
2020/12/20 03:57:12;;;;;;;11.95;2.05;;;;;;;9.84;63.08;98650.16;4971685;28;20154;-82
2020/12/20 03:59:39;;;;;;;8.32;1.58;;;;;;;9.80;62.87;98647.66;4972135;28;20047;-82
2020/12/20 04:02:06;;;;;;;12.02;1.83;;;;;;;10.24;61.62;98646.72;4954439;28;20046;-81
2020/12/20 04:04:33;;;;;;;8.48;1.58;;;;;;;10.27;61.00;98652.72;4966477;28;20043;-82
2020/12/20 04:07:00;;;;;;;10.02;1.55;;;;;;;10.56;60.24;98646.81;4949471;28;20047;-82
2020/12/20 04:09:26;;;;;;;10.23;1.58;;;;;;;10.28;61.02;98656.19;4971712;28;20450;-82
2020/12/20 04:11:53;;;;;;;11.95;1.52;;;;;;;9.84;62.37;98659.75;4986109;28;20129;-82
2020/12/20 04:14:19;;;;;;;10.35;2.50;;;;;;;10.45;60.67;98649.69;4970493;28;20046;-82
2020/12/20 04:16:46;;;;;;;4.88;1.60;;;;;;;10.13;61.33;98662.59;4953259;28;20046;-82
2020/12/20 04:19:12;;;;;;;10.77;1.50;;;;;;;10.03;61.54;98655.84;4978306;28;20042;-83
2020/12/20 04:21:40;;;;;;;11.00;1.30;;;;;;;10.10;61.59;98662.66;4950898;28;20046;-83
2020/12/20 04:24:07;;;;;;;9.20;1.55;;;;;;;10.04;61.20;98665.41;4958855;28;20057;-81
2020/12/20 04:26:34;;;;;;;4.90;1.38;;;;;;;9.83;62.07;98658.88;4965708;28;20409;-82
2020/12/20 04:29:00;;;;;;;5.13;1.50;;;;;;;10.37;60.91;98656.84;4966139;28;20529;-84
2020/12/20 04:31:27;;;;;;;10.32;1.30;;;;;;;10.35;61.07;98660.41;4986338;28;20509;-83
2020/12/20 04:33:54;;;;;;;7.55;1.35;;;;;;;10.25;61.57;98664.97;4950440;28;20067;-82
2020/12/20 04:36:20;;;;;;;5.82;1.40;;;;;;;10.55;60.33;98663.38;4966841;28;20715;-83
2020/12/20 04:38:47;;;;;;;10.30;1.55;;;;;;;10.18;61.57;98670.34;4968947;28;20050;-83
2020/12/20 04:41:14;;;;;;;11.57;1.92;;;;;;;10.07;62.51;98666.19;4963551;28;20034;-81
2020/12/20 04:43:41;;;;;;;6.95;1.80;;;;;;;10.12;61.96;98680.91;4963533;28;20043;-82
2020/12/20 04:46:08;;;;;;;6.35;1.33;;;;;;;10.18;62.07;98681.66;4962929;28;20097;-82
2020/12/20 04:48:38;;;;;;;11.55;1.42;;;;;;;10.05;62.28;98680.19;4973842;28;20047;-83
2020/12/20 04:51:06;;;;;;;7.47;1.55;;;;;;;10.50;61.23;98689.59;4964931;28;20039;-83
2020/12/20 04:53:36;;;;;;;11.80;1.75;;;;;;;10.82;60.38;98683.63;4967289;28;20054;-84
2020/12/20 04:56:08;;;;;;;6.03;1.13;;;;;;;11.03;59.21;98679.59;4964878;28;20039;-84
2020/12/20 04:58:35;;;;;;;11.27;2.50;;;;;;;11.13;59.02;98686.31;4961947;28;20141;-84
2020/12/20 05:01:04;;;;;;;9.48;1.45;;;;;;;11.04;59.34;98688.31;4968053;28;20042;-83
2020/12/20 05:03:31;;;;;;;11.07;1.42;;;;;;;10.73;60.17;98686.47;4963307;28;20051;-84
2020/12/20 05:05:57;;;;;;;12.05;1.77;;;;;;;10.84;60.15;98687.06;4950178;28;20054;-84
2020/12/20 05:08:25;;;;;;;14.27;1.70;;;;;;;10.71;60.82;98703.06;4962823;28;20034;-83
2020/12/20 05:10:52;;;;;;;8.68;1.25;;;;;;;10.15;61.49;98694.75;4977819;28;20047;-84
2020/12/20 05:13:20;;;;;;;7.63;1.40;;;;;;;10.11;62.70;98689.63;4963331;28;20042;-83
2020/12/20 05:15:47;;;;;;;13.70;2.25;;;;;;;10.23;62.01;98689.38;4963084;28;20039;-83
2020/12/20 05:18:16;;;;;;;13.25;1.52;;;;;;;10.20;62.04;98687.72;4968472;28;20350;-83
2020/12/20 05:20:47;;;;;;;12.48;1.83;;;;;;;9.92;62.77;98679.59;4971591;28;20046;-83
2020/12/20 05:23:16;;;;;;;10.20;1.23;;;;;;;9.97;62.44;98682.97;4945283;28;20046;-81
2020/12/20 05:25:43;;;;;;;13.05;2.45;;;;;;;9.82;63.24;98671.97;4961928;28;20058;-82
2020/12/20 05:28:15;;;;;;;12.45;1.73;;;;;;;9.57;63.99;98682.03;4964027;28;20131;-82
2020/12/20 05:30:43;;;;;;;11.27;2.13;;;;;;;9.43;64.41;98678.84;4981080;28;20073;-82
2020/12/20 05:33:30;;;;;;;9.85;1.58;;;;;;;9.30;64.52;98678.22;4981065;28;20055;-82
2020/12/20 05:36:05;;;;;;;19.40;1.60;;;;;;;9.58;63.87;98682.00;4963002;28;20175;-84
2020/12/20 05:38:32;;;;;;;8.25;1.73;;;;;;;9.24;64.85;98673.13;4962881;28;20047;-84
2020/12/20 05:41:00;;;;;;;8.27;1.67;;;;;;;9.03;65.79;98668.28;4967362;28;20043;-82
2020/12/20 05:43:28;;;;;;;11.07;1.58;;;;;;;9.39;64.73;98672.84;4961308;28;20047;-82
2020/12/20 05:45:58;;;;;;;17.42;2.10;;;;;;;8.96;65.56;98666.69;4966796;28;20061;-81
2020/12/20 05:48:31;;;;;;;12.00;2.15;;;;;;;9.20;65.39;98666.25;4943787;28;20035;-83
2020/12/20 05:51:06;;;;;;;6.38;1.40;;;;;;;9.37;64.90;98664.16;4969010;28;20126;-84
2020/12/20 05:53:34;;;;;;;12.18;1.70;;;;;;;9.33;65.07;98669.47;4966964;28;20037;-83
2020/12/20 05:56:02;;;;;;;10.55;1.33;;;;;;;9.45;64.16;98680.50;4963438;28;20066;-83
2020/12/20 05:58:34;;;;;;;10.68;1.42;;;;;;;9.16;65.23;98683.66;4964218;28;20055;-83
2020/12/20 06:01:02;;;;;;;10.00;1.90;;;;;;;9.02;65.59;98685.66;4966966;28;20039;-84
2020/12/20 06:03:28;;;;;;;9.82;1.63;;;;;;;8.94;66.01;98684.94;4969532;28;20043;-84
2020/12/20 06:06:00;;;;;;;9.38;1.70;;;;;;;9.45;64.38;98685.72;4960689;28;20034;-83
2020/12/20 06:08:31;;;;;;;15.75;2.05;;;;;;;9.07;65.36;98680.34;4968072;28;20082;-81
2020/12/20 06:11:02;;;;;;;12.90;1.55;;;;;;;9.27;64.69;98686.06;4967020;28;20371;-82
2020/12/20 06:13:29;;;;;;;9.20;1.52;;;;;;;9.07;64.73;98683.81;4962959;28;20043;-81
2020/12/20 06:15:57;;;;;;;9.20;1.35;;;;;;;8.96;65.60;98692.72;4960627;28;20039;-83
2020/12/20 06:18:28;;;;;;;10.27;1.60;;;;;;;9.16;64.86;98690.63;4965860;28;20066;-83
2020/12/20 06:21:04;;;;;;;9.70;1.73;;;;;;;9.29;63.99;98705.16;4968782;28;20070;-83
2020/12/20 06:23:33;;;;;;;7.47;1.50;;;;;;;9.06;65.21;98720.34;4971324;28;20039;-83
2020/12/20 06:26:03;;;;;;;7.97;1.30;;;;;;;9.36;63.94;98711.09;4964725;28;20058;-83
2020/12/20 06:28:32;;;;;;;10.48;1.20;;;;;;;9.22;64.43;98720.91;4965576;28;20231;-81
2020/12/20 06:31:01;;;;;;;8.95;1.50;;;;;;;9.06;64.89;98731.63;4970644;28;20589;-82
2020/12/20 06:33:45;;;;;;;8.38;1.25;;;;;;;9.26;64.01;98741.69;4968832;28;20139;-81
2020/12/20 06:36:15;;;;;;;6.28;1.50;;;;;;;9.60;62.98;98744.53;4971662;28;20050;-82
2020/12/20 06:38:52;;;;;;;6.80;1.08;;;;;;;9.50;63.41;98740.38;4972207;28;20043;-83
2020/12/20 06:41:40;;;;;;;7.13;1.00;;;;;;;9.56;63.29;98735.94;4979119;28;20121;-83
2020/12/20 06:44:14;;;;;;;6.28;1.40;;;;;;;8.91;65.03;98731.00;4967577;28;20043;-82
2020/12/20 06:46:43;;;;;;;8.00;2.10;;;;;;;9.17;64.00;98728.81;4975071;28;20047;-81
2020/12/20 06:49:42;;;;;;;8.82;2.35;;;;;;;8.29;67.17;98724.97;4935699;28;20053;-82
2020/12/20 06:52:23;;;;;;;8.40;0.93;;;;;;;9.15;63.87;98731.47;4969720;28;20042;-83
2020/12/20 06:55:05;;;;;;;14.00;4.22;;;;;;;8.67;65.39;98727.06;4968478;28;20057;-82
2020/12/20 06:57:32;;;;;;;11.32;1.25;;;;;;;8.60;66.42;98735.81;4965456;28;20066;-82
2020/12/20 06:59:59;;;;;;;9.38;2.17;;;;;;;9.16;64.11;98738.38;4970652;28;20105;-82
2020/12/20 07:02:40;;;;;;;13.05;1.58;;;;;;;9.13;64.24;98738.44;4950202;28;20093;-83
2020/12/20 07:05:45;;;;;;;6.45;1.10;;;;;;;9.10;63.97;98737.63;4953404;28;20085;-83
2020/12/20 07:08:29;;;;;;;7.85;1.52;;;;;;;8.96;64.37;98755.25;4971232;28;20485;-83
2020/12/20 07:11:00;;;;;;;14.27;1.80;;;;;;;8.91;65.15;98757.94;4964984;28;20062;-82
2020/12/20 07:13:40;;;;;;;10.82;2.53;;;;;;;8.85;64.89;98762.34;4965388;28;20046;-83
2020/12/20 07:16:08;;;;;;;12.63;1.67;;;;;;;9.02;64.57;98761.19;4970220;28;20047;-83
2020/12/20 07:18:57;;;;;;;14.93;1.80;;;;;;;8.91;64.68;98757.06;4970200;28;20042;-83
2020/12/20 07:21:24;;;;;;;10.73;1.70;;;;;;;8.99;64.32;98761.25;4981649;28;20047;-84
2020/12/20 07:23:53;;;;;;;6.30;1.25;;;;;;;8.84;65.17;98766.69;4986510;28;20092;-82
2020/12/20 07:26:20;;;;;;;14.02;2.35;;;;;;;8.43;65.52;98764.72;4967859;28;20077;-82
2020/12/20 07:28:47;;;;;;;13.90;2.47;;;;;;;8.56;65.76;98761.03;4967658;28;21447;-82
2020/12/20 07:31:18;;;;;;;15.45;2.08;;;;;;;8.83;65.54;98759.75;4973293;28;20054;-82
2020/12/20 07:33:46;;;;;;;8.30;2.22;;;;;;;8.46;66.79;98762.06;4963405;28;20062;-82
2020/12/20 07:36:14;;;;;;;14.10;2.42;;;;;;;8.53;66.62;98755.91;4944731;28;20110;-82
2020/12/20 07:38:40;;;;;;;13.48;2.20;;;;;;;8.62;66.14;98760.97;4945263;28;20084;-83
2020/12/20 07:41:11;;;;;;;8.15;1.48;;;;;;;8.65;66.32;98757.44;4950582;28;20415;-82
2020/12/20 07:43:38;;;;;;;6.90;1.60;;;;;;;8.67;66.08;98758.28;4968170;28;20038;-81
2020/12/20 07:46:08;;;;;;;10.55;1.75;;;;;;;8.73;66.17;98752.97;4967995;28;20545;-81
2020/12/20 07:48:35;;;;;;;7.22;1.35;;;;;;;8.54;66.92;98747.19;4965539;28;20050;-81
2020/12/20 07:51:17;;;;;;;11.27;1.27;;;;;;;8.57;66.22;98752.38;4969925;28;20470;-81
2020/12/20 07:53:49;;;;;;;9.88;1.80;;;;;;;8.70;66.43;98763.44;4964278;28;20051;-81
2020/12/20 07:56:37;;;;;;;7.60;1.67;;;;;;;8.67;66.62;98771.31;4967195;28;20054;-82
2020/12/20 07:59:10;;;;;;;13.43;2.20;;;;;;;8.40;67.33;98782.94;4965492;28;20043;-84
2020/12/20 08:01:38;;;;;;;15.35;2.30;;;;;;;8.74;66.82;98786.81;4954993;28;20062;-83
2020/12/20 08:04:20;;;;;;;7.95;1.58;;;;;;;8.55;67.43;98782.75;4969328;28;20081;-82
2020/12/20 08:06:52;;;;;;;13.00;1.90;;;;;;;8.72;66.76;98795.53;4934368;28;20392;-81
2020/12/20 08:09:26;;;;;;;15.68;2.15;;;;;;;8.65;66.97;98794.75;4963539;28;20382;-82
2020/12/20 08:11:56;;;;;;;10.93;2.20;;;;;;;8.72;67.04;98800.75;4967611;28;20043;-81
2020/12/20 08:14:24;;;;;;;10.02;1.52;;;;;;;8.16;68.57;98811.84;4967484;28;20501;-81
2020/12/20 08:16:54;;;;;;;11.40;2.05;;;;;;;8.69;66.92;98812.06;4964957;28;20110;-82
2020/12/20 08:19:31;;;;;;;12.05;1.70;;;;;;;8.60;67.12;98814.78;4951322;28;20051;-82
2020/12/20 08:22:13;;;;;;;15.60;2.03;;;;;;;8.72;66.07;98814.63;4964082;28;20478;-83
2020/12/20 08:24:47;;;;;;;12.45;3.03;;;;;;;8.69;66.19;98813.78;4966717;28;20596;-82
2020/12/20 08:27:26;;;;;;;19.63;3.05;;;;;;;8.62;67.04;98809.56;4968293;28;20061;-81
2020/12/20 08:29:55;;;;;;;16.20;2.10;;;;;;;8.32;67.47;98805.63;4961954;28;20102;-83
2020/12/20 08:32:37;;;;;;;10.32;1.90;;;;;;;8.66;66.27;98804.28;4969170;28;20098;-85
2020/12/20 08:35:24;;;;;;;7.88;1.33;;;;;;;8.59;66.63;98801.78;4953426;28;20051;-83
2020/12/20 08:38:00;;;;;;;17.77;1.80;;;;;;;8.62;66.36;98802.63;4960368;28;20109;-83
2020/12/20 08:40:31;;;;;;;12.52;1.88;;;;;;;8.56;66.78;98805.31;4966023;28;20383;-82
2020/12/20 08:43:00;;;;;;;13.30;1.50;;;;;;;8.57;66.76;98816.56;4973838;28;20042;-83
2020/12/20 08:45:30;;;;;;;13.68;1.73;;;;;;;8.96;65.44;98815.16;4970449;28;20093;-82
2020/12/20 08:48:07;;;;;;;11.38;1.48;;;;;;;8.53;66.73;98815.78;4947152;28;20058;-84
2020/12/20 08:50:35;;;;;;;9.90;1.73;;;;;;;8.90;65.43;98825.66;4969618;28;20082;-84
2020/12/20 08:53:07;;;;;;;8.07;1.25;;;;;;;9.03;64.89;98829.78;4983164;28;20081;-83
2020/12/20 08:55:34;;;;;;;14.98;1.80;;;;;;;9.12;65.00;98834.88;4956845;28;20046;-81
2020/12/20 08:58:07;;;;;;;4.32;1.23;;;;;;;8.77;65.66;98834.53;4975224;28;20845;-82
2020/12/20 09:00:35;;;;;;;11.73;1.85;;;;;;;8.90;65.64;98836.06;4977917;28;20476;-82
2020/12/20 09:03:06;;;;;;;12.20;1.88;;;;;;;8.87;65.83;98852.63;4950594;28;20468;-83
2020/12/20 09:05:37;;;;;;;12.50;1.87;;;;;;;9.08;65.28;98846.22;4965074;28;20094;-83
2020/12/20 09:08:05;;;;;;;11.70;1.58;;;;;;;8.93;65.43;98854.25;4985233;28;20541;-82
2020/12/20 09:10:34;;;;;;;7.35;1.85;;;;;;;9.43;64.69;98862.19;4972611;28;20054;-83
2020/12/20 09:13:04;;;;;;;10.48;1.73;;;;;;;10.21;62.20;98872.16;4987123;28;20419;-82
2020/12/20 09:15:31;;;;;;;10.48;1.48;;;;;;;11.03;59.62;98872.19;4966832;28;20382;-83
2020/12/20 09:18:00;;;;;;;8.80;1.38;;;;;;;10.76;59.75;98871.88;4988674;28;20086;-82
2020/12/20 09:20:29;;;;;;;13.20;1.98;;;;;;;10.41;60.36;98875.19;4975841;28;20058;-83
2020/12/20 09:23:00;;;;;;;12.50;1.88;;;;;;;10.63;60.44;98880.00;4989486;28;20050;-83
2020/12/20 09:25:38;;;;;;;13.00;2.10;;;;;;;10.45;60.61;98889.06;4984956;28;20058;-82
2020/12/20 09:28:10;;;;;;;16.95;6.15;;;;;;;10.10;61.73;98897.53;4980746;28;20599;-82
2020/12/20 09:30:50;;;;;;;;;;;;;;;10.36;62.05;98891.88;4969706;28;20030;-83
2020/12/20 09:33:29;;;;;;;20.30;6.97;;;;;;;10.24;61.90;98905.13;4968434;28;19965;-83
2020/12/20 09:36:00;;;;;;;16.60;6.10;;;;;;;10.14;62.00;98904.41;4983856;28;20113;-82
2020/12/20 09:38:41;;;;;;;11.13;3.28;;;;;;;9.65;64.19;98899.19;4971944;28;20058;-83
2020/12/20 09:41:17;;;;;;;12.95;3.55;;;;;;;10.20;62.36;98914.78;4954754;28;20043;-82
2020/12/20 09:43:45;;;;;;;14.07;3.70;;;;;;;10.47;62.40;98902.94;4982248;28;20438;-82
2020/12/20 09:46:22;;;;;;;12.32;2.80;;;;;;;12.17;57.38;98910.38;4969055;28;20493;-83
2020/12/20 09:48:49;;;;;;;11.82;1.70;;;;;;;12.15;56.22;98903.44;4965042;28;20046;-84
2020/12/20 09:51:23;;;;;;;9.57;2.35;;;;;;;11.48;58.10;98917.31;4967557;28;20053;-82
2020/12/20 09:53:53;;;;;;;12.80;2.10;;;;;;;12.33;56.06;98915.19;4951433;28;20133;-82
2020/12/20 09:56:20;;;;;;;11.88;2.03;;;;;;;13.42;53.27;98915.53;4968338;28;20201;-85
2020/12/20 09:58:48;;;;;;;9.55;2.03;;;;;;;14.73;49.47;98917.19;4947520;28;20039;-83
2020/12/20 10:01:16;;;;;;;7.95;1.98;;;;;;;14.95;49.18;98919.88;4968130;28;20043;-83
2020/12/20 10:03:43;;;;;;;9.40;1.80;;;;;;;16.51;45.29;98920.56;4974827;28;20039;-84
2020/12/20 10:06:10;;;;;;;7.63;1.92;;;;;;;16.41;44.43;98919.22;4973343;28;20061;-82
2020/12/20 10:08:44;;;;;;;9.38;2.03;;;;;;;16.12;46.57;98915.22;4968448;28;20046;-82
2020/12/20 10:11:14;;;;;;;10.95;3.08;;;;;;;16.02;46.64;98919.16;4963210;28;20043;-83
2020/12/20 10:13:41;;;;;;;16.42;4.15;;;;;;;16.74;45.06;98922.22;4966635;28;20047;-81
2020/12/20 10:16:20;;;;;;;8.73;2.63;;;;;;;16.88;44.42;98923.28;4951021;28;20074;-81
2020/12/20 10:18:47;;;;;;;12.15;3.72;;;;;;;17.46;42.72;98925.88;4964006;28;20039;-81
2020/12/20 10:21:15;;;;;;;11.02;3.13;;;;;;;18.49;41.41;98909.31;4953604;28;20066;-83
2020/12/20 10:23:48;;;;;;;14.75;3.75;;;;;;;17.96;41.94;98906.75;4971038;28;20047;-81
2020/12/20 10:26:15;;;;;;;14.20;4.25;;;;;;;17.50;42.06;98910.78;4950813;28;20076;-82
2020/12/20 10:28:42;;;;;;;14.77;4.25;;;;;;;15.38;46.69;98911.22;4969931;28;20446;-80
2020/12/20 10:31:09;;;;;;;12.48;3.78;;;;;;;14.76;48.99;98897.81;4951021;28;20066;-82
2020/12/20 10:33:37;;;;;;;16.67;5.22;;;;;;;13.76;52.33;98917.94;4968039;28;20070;-82
2020/12/20 10:36:04;;;;;;;19.95;6.43;;;;;;;13.99;51.36;98909.28;4967620;28;20615;-81
2020/12/20 10:38:30;;;;;;;16.95;5.00;;;;;;;14.25;50.89;98917.13;4970515;28;20086;-81
2020/12/20 10:40:57;;;;;;;12.18;5.15;;;;;;;13.88;52.66;98908.78;4971406;28;20524;-81
2020/12/20 10:43:26;;;;;;;17.70;5.13;;;;;;;12.42;55.50;98914.97;4974710;28;20472;-82
2020/12/20 10:45:53;;;;;;;15.23;4.65;;;;;;;11.95;57.05;98921.41;4964741;28;20113;-81
2020/12/20 10:48:21;;;;;;;20.92;4.50;;;;;;;11.25;60.39;98923.94;4970612;28;20047;-80
2020/12/20 10:50:48;;;;;;;22.27;5.50;;;;;;;11.60;59.70;98915.28;4965440;28;20526;-80
2020/12/20 10:53:14;;;;;;;25.30;6.15;;;;;;;11.53;59.73;98925.91;4965810;28;20504;-80
2020/12/20 10:55:42;;;;;;;18.80;5.97;;;;;;;11.31;60.71;98917.72;4967609;28;20122;-80
2020/12/20 10:58:13;;;;;;;12.88;3.40;;;;;;;11.40;60.35;98921.88;4968452;28;20051;-79
2020/12/20 11:00:39;;;;;;;20.58;3.75;;;;;;;11.00;61.61;98925.38;4964103;28;20856;-81
2020/12/20 11:03:06;;;;;;;16.65;4.55;;;;;;;11.32;60.38;98929.88;4969413;28;20070;-79
2020/12/20 11:05:32;;;;;;;21.13;3.50;;;;;;;11.52;59.71;98919.81;4986086;28;20394;-80
2020/12/20 11:07:59;;;;;;;13.23;3.22;;;;;;;11.85;59.06;98928.63;4973107;28;20035;-80
2020/12/20 11:10:26;;;;;;;24.90;2.83;;;;;;;12.00;58.40;98914.31;4949267;28;20129;-79
2020/12/20 11:12:55;;;;;;;17.50;2.78;;;;;;;12.22;57.90;98916.34;4979659;28;20041;-81
2020/12/20 11:15:23;;;;;;;14.68;3.08;;;;;;;11.72;59.36;98915.00;4958610;28;20489;-79
2020/12/20 11:17:50;;;;;;;18.42;2.58;;;;;;;12.45;57.47;98920.09;4947846;28;20397;-81
2020/12/20 11:20:18;;;;;;;13.20;3.15;;;;;;;11.96;58.37;98924.00;4973067;28;20585;-80
2020/12/20 11:22:50;;;;;;;17.52;2.63;;;;;;;12.50;57.44;98926.94;4952665;28;20045;-79
2020/12/20 11:25:17;;;;;;;22.05;8.25;;;;;;;12.01;58.99;98916.91;4967268;28;20521;-79
2020/12/20 11:27:44;;;;;;;18.65;7.57;;;;;;;12.46;57.33;98909.59;4950084;28;20049;-80
2020/12/20 11:30:14;;;;;;;20.63;7.75;;;;;;;12.68;57.30;98915.09;4960919;28;20405;-81
2020/12/20 11:32:41;;;;;;;17.23;5.10;;;;;;;12.85;56.18;98909.38;4967439;28;20054;-80
2020/12/20 11:35:10;;;;;;;20.33;6.82;;;;;;;12.62;56.88;98923.09;4970792;28;20047;-81
2020/12/20 11:37:39;;;;;;;20.55;7.40;;;;;;;13.37;54.44;98927.06;4966567;28;20070;-83
2020/12/20 11:40:07;;;;;;;18.40;6.20;;;;;;;13.36;54.70;98933.19;4973021;28;20073;-86
2020/12/20 11:42:37;;;;;;;17.98;5.53;;;;;;;13.42;54.22;98927.78;4964186;28;20431;-84
2020/12/20 11:45:04;;;;;;;15.48;3.53;;;;;;;12.83;54.81;98924.28;4971917;28;20083;-83
2020/12/20 11:47:31;;;;;;;11.48;2.05;;;;;;;13.16;54.43;98925.06;4968604;28;20047;-85